Hlavní strana
METAR-TAF:

METAR-TAF

Letiště :

Uíge, Angola

zeměpisná šířka: 7-36-10S, zeměpisná délka: 15-1-40E, výška: 829 m

Aktuální stav počasí

Zpráva byla vytvořena před 14 hodinami a 37 minutami, v 13:00 UTC
Jihojihozápadní vítr 8 kt
Teplota 30°C
Vlhkost vzduchu 59%
Tlak 1012 hPa
Viditelnost 10 km a více
Skoro jasno ve výšce 3000 ft

METAR: FNUG 251300Z 21008KT 9999 FEW030 30/21 Q1012

Čas: 04:37 (03:37 UTC)


TAF: chybějící

Stav a předpovědi počasí z více než 4 000 letišť (zprávy METAR a TAF).

Červené a žluté tečky na mapě představují dostupné meteorologické stanice.

Když kurzor umístíte na tečku, zobrazí se název stanice.

Pak kliknutím zobrazíte stav a předpověď počasí.

Chcete-li změnit mapu, kliknutím na zelené tlačítko se znaménkem +mapu přiblížíte, kliknutím na zelené tlačítko se znaménkem – mapu oddálíte a kliknutím na zelené šipky přejdete na sousední mapy.


METAR-TAF: